Time;durP1;ratioP1;P1;durP2;ratioP2;P2;SDS_P1;SDS_P2;PMS_P1;PMS_P2;Temp;Humidity;BMP_temperature;BMP_pressure;BME280_temperature;BME280_humidity;BME280_pressure;Samples;Min_cycle;Max_cycle;Signal;HPM_P1;HPM_P2
2023/01/13 00:01:12;;;;;;;35.35;5.70;;;;;;;7.71;100.00;100346.03;5055544;28;20021;-55
2023/01/13 00:03:38;;;;;;;38.53;5.75;;;;;;;7.72;100.00;100329.78;5054861;28;20024;-56
2023/01/13 00:06:04;;;;;;;35.80;6.25;;;;;;;7.69;100.00;100338.25;5055020;28;20041;-55
2023/01/13 00:08:30;;;;;;;37.80;6.60;;;;;;;7.67;100.00;100349.28;5055336;28;20040;-54
2023/01/13 00:10:55;;;;;;;43.33;7.20;;;;;;;7.62;100.00;100350.81;5055096;28;20029;-55
2023/01/13 00:13:25;;;;;;;74.10;7.07;;;;;;;7.56;100.00;100336.97;5055128;28;20033;-55
2023/01/13 00:15:58;;;;;;;38.13;6.40;;;;;;;7.53;100.00;100342.00;5055045;28;20033;-55
2023/01/13 00:18:23;;;;;;;47.08;7.13;;;;;;;7.48;100.00;100327.31;5054728;28;20020;-55
2023/01/13 00:20:57;;;;;;;44.40;7.10;;;;;;;7.40;100.00;100324.47;5054709;28;20437;-55
2023/01/13 00:23:23;;;;;;;41.13;7.10;;;;;;;7.30;100.00;100318.16;5055446;28;20021;-55
2023/01/13 00:25:49;;;;;;;40.83;6.65;;;;;;;7.29;100.00;100305.28;5054447;28;20029;-55
2023/01/13 00:28:14;;;;;;;44.38;6.53;;;;;;;7.31;100.00;100308.75;5054940;28;20070;-55
2023/01/13 00:30:39;;;;;;;46.83;7.55;;;;;;;7.28;100.00;100304.41;5054817;28;20028;-55
2023/01/13 00:33:04;;;;;;;48.30;6.95;;;;;;;7.23;100.00;100306.81;5054456;28;20027;-55
2023/01/13 00:35:30;;;;;;;45.50;6.63;;;;;;;7.28;100.00;100298.41;5054278;28;20104;-55
2023/01/13 00:37:55;;;;;;;40.80;6.95;;;;;;;7.21;100.00;100292.22;5055157;28;20033;-56
2023/01/13 00:40:20;;;;;;;53.92;7.28;;;;;;;7.15;100.00;100285.16;5053313;28;20031;-55
2023/01/13 00:45:29;;;;;;;51.53;7.07;;;;;;;7.11;100.00;100290.16;5054323;28;20388;-55
2023/01/13 00:47:54;;;;;;;54.78;7.70;;;;;;;7.08;100.00;100280.66;5054746;28;20033;-55
2023/01/13 00:50:20;;;;;;;50.25;6.85;;;;;;;7.05;100.00;100270.28;5054425;28;20111;-56
2023/01/13 00:52:45;;;;;;;49.20;8.10;;;;;;;7.04;100.00;100283.94;5053910;28;20037;-55
2023/01/13 00:55:10;;;;;;;48.55;7.30;;;;;;;7.04;100.00;100287.38;5054314;28;20090;-56
2023/01/13 00:57:35;;;;;;;53.97;8.18;;;;;;;7.07;100.00;100294.28;5054249;28;20025;-55
2023/01/13 01:00:01;;;;;;;44.72;7.30;;;;;;;7.06;100.00;100292.53;5054001;28;20028;-55
2023/01/13 01:02:26;;;;;;;50.88;7.05;;;;;;;7.04;100.00;100294.19;5054148;28;20461;-55
2023/01/13 01:04:51;;;;;;;51.55;7.30;;;;;;;7.02;100.00;100296.72;5054219;28;20044;-56
2023/01/13 01:07:17;;;;;;;53.60;7.72;;;;;;;7.01;100.00;100301.75;5053620;28;20458;-56
2023/01/13 01:09:42;;;;;;;47.67;7.35;;;;;;;7.00;100.00;100307.72;5053887;28;20044;-55
2023/01/13 01:12:07;;;;;;;57.17;7.68;;;;;;;6.99;100.00;100298.28;5054238;28;20122;-55
2023/01/13 01:14:33;;;;;;;53.95;8.10;;;;;;;6.99;100.00;100305.97;5053424;28;20033;-56
2023/01/13 01:16:58;;;;;;;47.38;8.45;;;;;;;6.97;100.00;100312.72;5054046;28;20021;-55
2023/01/13 01:19:24;;;;;;;55.10;7.78;;;;;;;7.00;100.00;100310.28;5054097;28;20025;-56
2023/01/13 01:21:49;;;;;;;50.33;7.63;;;;;;;6.97;100.00;100313.63;5053441;28;20025;-56
2023/01/13 01:24:15;;;;;;;49.85;7.32;;;;;;;7.01;100.00;100301.75;5053935;28;20112;-56
2023/01/13 01:26:40;;;;;;;50.15;8.93;;;;;;;7.06;100.00;100318.16;5053765;28;20025;-56
2023/01/13 01:29:06;;;;;;;50.03;7.47;;;;;;;7.07;100.00;100301.97;5053394;28;20021;-56
2023/01/13 01:31:32;;;;;;;52.30;7.43;;;;;;;7.08;100.00;100316.53;5053378;28;20037;-56
2023/01/13 01:33:58;;;;;;;41.78;7.38;;;;;;;7.09;100.00;100308.03;5053792;28;20028;-56
2023/01/13 01:36:25;;;;;;;64.30;7.85;;;;;;;7.14;100.00;100314.22;5053396;28;20029;-56
2023/01/13 01:38:51;;;;;;;54.10;8.03;;;;;;;7.14;100.00;100311.63;5053225;28;20384;-56
2023/01/13 01:41:22;;;;;;;52.45;7.68;;;;;;;7.16;100.00;100312.56;5053831;28;20108;-54
2023/01/13 01:43:58;;;;;;;51.05;7.45;;;;;;;7.11;100.00;100310.66;5052900;28;20384;-56
2023/01/13 01:46:34;;;;;;;49.83;7.22;;;;;;;7.04;100.00;100320.69;5053373;28;20021;-55
2023/01/13 01:49:24;;;;;;;42.47;7.18;;;;;;;7.05;100.00;100308.72;5053245;28;20032;-55
2023/01/13 01:52:00;;;;;;;53.20;7.85;;;;;;;7.00;100.00;100312.84;5052770;28;20031;-56
2023/01/13 01:54:38;;;;;;;49.93;7.97;;;;;;;6.99;100.00;100311.09;5053496;28;20035;-56
2023/01/13 01:57:05;;;;;;;57.97;8.30;;;;;;;6.93;100.00;100301.50;5053183;28;20132;-56
2023/01/13 01:59:32;;;;;;;59.15;8.68;;;;;;;6.97;100.00;100310.16;5053052;28;20017;-56
2023/01/13 02:01:58;;;;;;;52.83;8.27;;;;;;;6.90;100.00;100312.50;5053368;28;20036;-55
2023/01/13 02:04:28;;;;;;;54.60;8.95;;;;;;;6.88;100.00;100313.25;5052811;28;20037;-56
2023/01/13 02:06:55;;;;;;;58.35;9.45;;;;;;;6.84;100.00;100301.16;5052853;28;20090;-55
2023/01/13 02:09:21;;;;;;;58.45;8.73;;;;;;;6.80;100.00;100289.94;5053219;28;20052;-56
2023/01/13 02:14:32;;;;;;;65.78;9.38;;;;;;;6.76;100.00;100303.44;5052929;28;20035;-54
2023/01/13 02:17:22;;;;;;;67.53;10.43;;;;;;;6.74;100.00;100299.97;5052770;28;20189;-55
2023/01/13 02:20:06;;;;;;;60.92;9.50;;;;;;;6.74;100.00;100305.97;5052615;28;20152;-56
2023/01/13 02:24:52;;;;;;;64.72;10.02;;;;;;;6.73;100.00;100298.22;5052852;28;20083;-56
2023/01/13 02:26:04;;;;;;;61.13;9.15;;;;;;;6.74;99.97;100294.88;5052661;28;20114;-56
2023/01/13 02:31:46;;;;;;;63.25;10.07;;;;;;;6.69;100.00;100309.19;5052593;28;20075;-56
2023/01/13 02:34:21;;;;;;;64.32;9.05;;;;;;;6.65;100.00;100297.06;5052578;28;20037;-56
2023/01/13 02:37:04;;;;;;;80.10;10.43;;;;;;;6.58;100.00;100296.88;5052735;28;20361;-56
2023/01/13 02:39:52;;;;;;;87.20;12.10;;;;;;;6.63;100.00;100302.13;5052175;28;20029;-56
2023/01/13 02:45:35;;;;;;;63.67;9.70;;;;;;;6.55;100.00;100277.94;5052632;28;20095;-55
2023/01/13 02:48:04;;;;;;;70.30;10.02;;;;;;;6.55;100.00;100275.38;5052814;28;20104;-56
2023/01/13 02:50:45;;;;;;;77.95;11.20;;;;;;;6.60;100.00;100266.19;5052506;28;20021;-56
2023/01/13 02:53:16;;;;;;;76.03;10.60;;;;;;;6.64;100.00;100279.97;5052386;28;20025;-56
2023/01/13 02:55:46;;;;;;;66.25;9.35;;;;;;;6.64;100.00;100279.97;5052277;28;20037;-56
2023/01/13 02:58:16;;;;;;;71.07;10.13;;;;;;;6.60;100.00;100271.31;5052796;28;20025;-56
2023/01/13 03:00:43;;;;;;;64.30;10.30;;;;;;;6.65;100.00;100266.34;5051854;28;20029;-56
2023/01/13 03:03:08;;;;;;;71.03;9.77;;;;;;;6.67;100.00;100265.56;5053314;28;20385;-56
2023/01/13 03:05:35;;;;;;;61.70;8.93;;;;;;;6.65;100.00;100258.66;5056066;28;20053;-56
2023/01/13 03:08:03;;;;;;;73.75;9.43;;;;;;;6.66;100.00;100271.53;5056179;28;20035;-56
2023/01/13 03:10:36;;;;;;;64.25;9.40;;;;;;;6.70;100.00;100275.94;5056276;28;20100;-56
2023/01/13 03:13:02;;;;;;;64.30;8.95;;;;;;;6.72;100.00;100264.06;5056035;28;20464;-56
2023/01/13 03:15:40;;;;;;;62.42;8.13;;;;;;;6.74;100.00;100271.81;5055989;28;20029;-56
2023/01/13 03:18:25;;;;;;;59.28;8.07;;;;;;;6.77;100.00;100264.22;5056469;28;20033;-56
2023/01/13 03:21:06;;;;;;;60.67;8.18;;;;;;;6.80;100.00;100261.75;5055535;28;20112;-56
2023/01/13 03:23:58;;;;;;;52.13;8.75;;;;;;;6.87;100.00;100265.44;5055901;28;20108;-56
2023/01/13 03:26:32;;;;;;;67.88;9.52;;;;;;;6.89;100.00;100249.31;5056261;28;20021;-56
2023/01/13 03:29:23;;;;;;;44.72;8.15;;;;;;;6.97;100.00;100256.38;5055727;28;20445;-56
2023/01/13 03:32:03;;;;;;;51.40;7.85;;;;;;;6.99;100.00;100253.03;5045568;28;20037;-56
2023/01/13 03:34:36;;;;;;;53.33;7.75;;;;;;;7.02;100.00;100252.28;5055482;28;20025;-56
2023/01/13 03:37:06;;;;;;;45.72;7.03;;;;;;;7.05;99.82;100258.38;5055997;28;20025;-56
2023/01/13 03:39:35;;;;;;;59.83;8.05;;;;;;;7.04;99.70;100253.19;5056020;28;20037;-56
2023/01/13 03:42:12;;;;;;;51.03;7.25;;;;;;;7.01;98.56;100247.97;5055571;28;20035;-56
2023/01/13 03:44:54;;;;;;;34.17;5.70;;;;;;;7.08;96.03;100244.81;5055460;28;20032;-56
2023/01/13 03:47:38;;;;;;;29.13;4.80;;;;;;;7.12;93.92;100236.38;5055857;28;20028;-56
2023/01/13 03:50:11;;;;;;;25.27;4.65;;;;;;;7.19;91.13;100233.22;5055466;28;20021;-56
2023/01/13 03:52:43;;;;;;;31.30;4.93;;;;;;;7.21;90.90;100236.69;5055555;28;20028;-56
2023/01/13 03:55:13;;;;;;;26.35;4.20;;;;;;;7.20;90.21;100239.22;5055308;28;20025;-56
2023/01/13 03:57:54;;;;;;;25.65;3.33;;;;;;;7.22;88.76;100224.75;5055376;28;20024;-56
2023/01/13 04:00:23;;;;;;;21.33;2.97;;;;;;;7.20;88.83;100240.06;5055822;28;20021;-56
2023/01/13 04:02:56;;;;;;;17.45;3.17;;;;;;;7.20;88.34;100244.34;5054706;28;20477;-56
2023/01/13 04:05:22;;;;;;;12.80;2.70;;;;;;;7.20;87.92;100245.19;5055295;28;20107;-56
2023/01/13 04:07:53;;;;;;;17.88;3.08;;;;;;;7.18;88.23;100241.72;5055233;28;20425;-56
2023/01/13 04:10:34;;;;;;;13.68;2.25;;;;;;;7.15;89.17;100258.69;5055108;28;20033;-55
2023/01/13 04:13:09;;;;;;;14.45;2.85;;;;;;;7.11;88.94;100267.94;5055452;28;20025;-55
2023/01/13 04:15:41;;;;;;;15.52;2.60;;;;;;;7.03;90.00;100271.97;5054913;28;20582;-56
2023/01/13 04:18:20;;;;;;;18.95;2.80;;;;;;;6.96;91.48;100282.78;5054807;28;20032;-55
2023/01/13 04:20:47;;;;;;;13.48;2.45;;;;;;;6.93;91.81;100283.56;5054978;28;20029;-56
2023/01/13 04:23:13;;;;;;;16.25;2.33;;;;;;;6.88;92.77;100290.22;5055271;28;20031;-56
2023/01/13 04:25:40;;;;;;;12.30;2.40;;;;;;;6.84;93.66;100286.69;5054646;28;20041;-56
2023/01/13 04:28:06;;;;;;;20.80;3.28;;;;;;;6.78;94.64;100281.34;5055147;28;20403;-56
2023/01/13 04:30:32;;;;;;;14.90;2.92;;;;;;;6.75;95.94;100286.34;5054375;28;20033;-56
2023/01/13 04:32:57;;;;;;;16.25;3.10;;;;;;;6.74;97.23;100294.88;5054764;28;20040;-56
2023/01/13 04:35:22;;;;;;;24.38;3.92;;;;;;;6.72;98.48;100292.22;5055135;28;20033;-56
2023/01/13 04:37:48;;;;;;;19.60;3.50;;;;;;;6.67;98.66;100282.63;5054273;28;20044;-56
2023/01/13 04:40:13;;;;;;;25.33;3.53;;;;;;;6.69;99.21;100278.47;5054848;28;20025;-55
2023/01/13 04:42:38;;;;;;;25.38;4.35;;;;;;;6.64;100.00;100272.28;5054715;28;20025;-56
2023/01/13 04:45:04;;;;;;;26.10;4.25;;;;;;;6.63;100.00;100280.78;5054328;28;20358;-55
2023/01/13 04:47:29;;;;;;;31.92;5.15;;;;;;;6.57;100.00;100282.31;5054210;28;20031;-56
2023/01/13 04:49:55;;;;;;;28.13;4.55;;;;;;;6.51;100.00;100255.63;5054950;28;20406;-56
2023/01/13 04:52:20;;;;;;;28.77;4.50;;;;;;;6.44;100.00;100269.84;5054170;28;20037;-56
2023/01/13 04:54:45;;;;;;;29.55;5.45;;;;;;;6.44;100.00;100262.19;5054070;28;20488;-56
2023/01/13 04:57:11;;;;;;;33.17;5.20;;;;;;;6.39;100.00;100253.44;5054647;28;20029;-56
2023/01/13 04:59:36;;;;;;;32.95;5.57;;;;;;;6.36;100.00;100245.69;5053855;28;20049;-56
2023/01/13 05:02:01;;;;;;;39.42;6.70;;;;;;;6.35;100.00;100242.25;5054138;28;20044;-55
2023/01/13 05:04:26;;;;;;;31.27;5.72;;;;;;;6.35;100.00;100249.03;5054405;28;20079;-55
2023/01/13 05:06:52;;;;;;;36.85;6.18;;;;;;;6.31;100.00;100249.75;5053505;28;20107;-56
2023/01/13 05:09:17;;;;;;;37.45;5.60;;;;;;;6.25;100.00;100253.81;5054183;28;20108;-56
2023/01/13 05:17:26;;;;;;;37.42;6.10;;;;;;;6.19;100.00;100248.47;5054518;28;20103;-56
2023/01/13 05:19:52;;;;;;;39.60;6.72;;;;;;;6.23;100.00;100250.31;5053538;28;20071;-56
2023/01/13 05:27:45;;;;;;;42.83;6.20;;;;;;;6.18;100.00;100258.66;5053045;28;20040;-56
2023/01/13 05:30:10;;;;;;;41.55;5.70;;;;;;;6.17;100.00;100265.47;5053976;28;20029;-56
2023/01/13 05:32:36;;;;;;;44.13;6.20;;;;;;;6.12;100.00;100266.97;5053618;28;20025;-56
2023/01/13 05:35:01;;;;;;;40.47;6.53;;;;;;;6.18;100.00;100258.66;5053302;28;20396;-56
2023/01/13 05:37:26;;;;;;;38.13;5.82;;;;;;;6.17;100.00;100264.56;5053535;28;20029;-56
2023/01/13 05:45:20;;;;;;;34.97;5.95;;;;;;;6.19;100.00;100278.31;5054153;28;20083;-55
2023/01/13 05:47:45;;;;;;;40.20;6.20;;;;;;;6.14;100.00;100280.69;5052658;28;20029;-55
2023/01/13 05:50:11;;;;;;;36.70;6.18;;;;;;;6.13;100.00;100285.75;5053408;28;20132;-56
2023/01/13 05:52:36;;;;;;;36.88;6.22;;;;;;;6.14;100.00;100290.91;5053424;28;20067;-56
2023/01/13 05:55:02;;;;;;;34.22;5.57;;;;;;;6.13;100.00;100293.44;5053059;28;20108;-56
2023/01/13 05:57:27;;;;;;;44.78;6.72;;;;;;;6.12;100.00;100292.56;5053004;28;20067;-56
2023/01/13 05:59:52;;;;;;;37.72;5.80;;;;;;;6.12;100.00;100292.56;5053349;28;20551;-56
2023/01/13 06:02:18;;;;;;;38.33;5.88;;;;;;;6.06;100.00;100305.97;5052817;28;20028;-56
2023/01/13 06:04:43;;;;;;;40.53;5.55;;;;;;;6.05;100.00;100300.81;5052720;28;20017;-56
2023/01/13 06:07:08;;;;;;;33.33;5.50;;;;;;;6.03;100.00;100302.41;5053195;28;20071;-56
2023/01/13 06:09:34;;;;;;;42.05;5.55;;;;;;;6.03;100.00;100312.66;5052624;28;20074;-56
2023/01/13 06:11:59;;;;;;;35.88;5.88;;;;;;;6.00;100.00;100321.06;5053353;28;20388;-56
2023/01/13 06:14:24;;;;;;;40.20;5.95;;;;;;;6.01;100.00;100321.97;5053397;28;20115;-56
2023/01/13 06:16:49;;;;;;;30.45;5.72;;;;;;;6.01;100.00;100316.84;5052258;28;20070;-55
2023/01/13 06:19:15;;;;;;;40.33;6.28;;;;;;;6.02;100.00;100326.28;5052866;28;20029;-56
2023/01/13 06:21:41;;;;;;;44.13;5.88;;;;;;;6.03;100.00;100322.88;5052709;28;20067;-56
2023/01/13 06:24:07;;;;;;;46.22;6.43;;;;;;;6.04;100.00;100334.88;5052612;28;20052;-56
2023/01/13 06:26:37;;;;;;;41.38;6.20;;;;;;;6.01;100.00;100322.81;5052402;28;20408;-56
2023/01/13 06:29:02;;;;;;;35.13;6.13;;;;;;;6.01;100.00;100314.28;5053159;28;20028;-56
2023/01/13 06:31:28;;;;;;;43.20;6.63;;;;;;;6.00;100.00;100327.88;5052157;28;20048;-56
2023/01/13 06:34:01;;;;;;;39.45;6.00;;;;;;;5.94;100.00;100319.13;5052565;28;20034;-56
2023/01/13 06:36:34;;;;;;;38.75;6.05;;;;;;;5.92;100.00;100319.88;5052765;28;20044;-56
2023/01/13 06:39:01;;;;;;;37.60;5.65;;;;;;;5.89;100.00;100335.13;5052076;28;20025;-55
2023/01/13 06:44:13;;;;;;;39.67;6.32;;;;;;;5.99;100.00;100319.34;5052479;28;20399;-56
2023/01/13 06:46:39;;;;;;;38.08;5.97;;;;;;;6.01;100.00;100324.53;5052434;28;20096;-55
2023/01/13 06:49:05;;;;;;;51.42;6.82;;;;;;;6.04;100.00;100316.97;5052889;28;20021;-56
2023/01/13 06:51:31;;;;;;;40.45;6.80;;;;;;;6.05;100.00;100317.00;5052078;28;20028;-56
2023/01/13 06:53:56;;;;;;;43.63;7.45;;;;;;;6.03;100.00;100312.66;5052363;28;20021;-56
2023/01/13 06:56:21;;;;;;;43.38;5.93;;;;;;;5.98;100.00;100324.34;5052837;28;20472;-56
2023/01/13 06:58:46;;;;;;;37.28;6.55;;;;;;;6.00;100.00;100315.09;5051764;28;20029;-56
2023/01/13 07:01:12;;;;;;;46.72;6.53;;;;;;;6.01;100.00;100302.38;5052538;28;20025;-56
2023/01/13 07:03:39;;;;;;;41.35;6.30;;;;;;;6.04;99.89;100317.84;5052290;28;20033;-56
2023/01/13 07:06:04;;;;;;;43.75;6.60;;;;;;;6.09;99.31;100328.25;5051848;28;20045;-56
2023/01/13 07:08:30;;;;;;;38.38;6.22;;;;;;;6.19;98.79;100340.59;5052112;28;20071;-56
2023/01/13 07:10:56;;;;;;;35.45;6.53;;;;;;;6.22;98.27;100340.72;5052473;28;20132;-56
2023/01/13 07:16:08;;;;;;;42.05;6.75;;;;;;;6.25;97.52;100342.53;5052379;28;20186;-56
2023/01/13 07:18:34;;;;;;;42.63;6.35;;;;;;;6.21;97.40;100333.84;5052355;28;20021;-56
2023/01/13 07:21:02;;;;;;;51.42;7.47;;;;;;;6.22;96.81;100330.50;5051772;28;20024;-56
2023/01/13 07:23:29;;;;;;;41.97;6.60;;;;;;;6.25;96.52;100343.41;5052237;28;20025;-56
2023/01/13 07:25:55;;;;;;;43.60;5.88;;;;;;;6.24;96.30;100343.34;5052388;28;20025;-56
2023/01/13 07:28:20;;;;;;;47.25;6.90;;;;;;;6.21;96.42;100344.09;5051713;28;20025;-56
2023/01/13 07:30:46;;;;;;;37.28;6.15;;;;;;;6.19;96.25;100345.69;5052143;28;20075;-56
2023/01/13 07:33:11;;;;;;;51.80;7.47;;;;;;;6.17;95.89;100337.13;5051531;28;20017;-56
2023/01/13 07:35:37;;;;;;;49.65;7.07;;;;;;;6.16;96.31;100350.72;5051553;28;20061;-56
2023/01/13 07:38:02;;;;;;;45.28;6.35;;;;;;;6.19;95.82;100361.06;5052272;28;20039;-56
2023/01/13 07:40:27;;;;;;;57.65;8.38;;;;;;;6.16;95.46;100349.81;5051422;28;20017;-56
2023/01/13 07:45:36;;;;;;;52.13;6.85;;;;;;;6.14;95.10;100366.81;5052397;28;20043;-55
2023/01/13 07:48:02;;;;;;;55.90;7.70;;;;;;;6.11;95.23;100354.78;5051635;28;20037;-56
2023/01/13 07:50:27;;;;;;;48.05;7.28;;;;;;;6.13;94.55;100365.06;5054680;28;20037;-56
2023/01/13 07:52:56;;;;;;;42.45;7.15;;;;;;;6.16;94.37;100360.94;5055767;28;20396;-55
2023/01/13 07:55:22;;;;;;;45.58;7.13;;;;;;;6.15;94.49;100364.31;5055295;28;20065;-54
2023/01/13 07:57:47;;;;;;;41.70;7.18;;;;;;;6.21;93.95;100369.69;5055199;28;20052;-54
2023/01/13 08:00:13;;;;;;;47.72;6.68;;;;;;;6.20;94.11;100362.81;5055768;28;20021;-55
2023/01/13 08:02:39;;;;;;;46.38;7.32;;;;;;;6.23;93.91;100357.81;5054630;28;20029;-56
2023/01/13 08:05:04;;;;;;;48.80;7.00;;;;;;;6.21;93.63;100359.44;5055413;28;20068;-56
2023/01/13 08:07:29;;;;;;;41.20;5.97;;;;;;;6.17;94.79;100357.59;5054993;28;20052;-56
2023/01/13 08:09:55;;;;;;;43.05;6.45;;;;;;;6.16;94.45;100366.06;5055155;28;20388;-56
2023/01/13 08:15:04;;;;;;;60.80;7.88;;;;;;;6.16;94.89;100360.94;5055860;28;20087;-56
2023/01/13 08:17:29;;;;;;;37.08;6.90;;;;;;;6.16;95.31;100371.19;5054343;28;20100;-56
2023/01/13 08:19:55;;;;;;;47.83;7.25;;;;;;;6.17;95.07;100377.16;5055182;28;20469;-56
2023/01/13 08:22:21;;;;;;;40.88;7.05;;;;;;;6.14;95.53;100377.91;5055204;28;20021;-56
2023/01/13 08:24:47;;;;;;;43.78;7.47;;;;;;;6.14;95.80;100372.78;5054590;28;20025;-56
2023/01/13 08:27:12;;;;;;;62.20;8.82;;;;;;;6.20;95.63;100378.16;5055286;28;20039;-55
2023/01/13 08:29:37;;;;;;;45.97;7.70;;;;;;;6.26;95.15;100377.53;5054314;28;20021;-56
2023/01/13 08:32:03;;;;;;;47.85;8.98;;;;;;;6.27;95.57;100369.03;5054806;28;20024;-56
2023/01/13 08:34:28;;;;;;;44.58;6.88;;;;;;;6.28;95.51;100395.53;5054864;28;20492;-56
2023/01/13 08:36:53;;;;;;;43.58;7.03;;;;;;;6.29;95.68;100382.78;5054452;28;20052;-56
2023/01/13 08:39:18;;;;;;;46.00;7.28;;;;;;;6.30;95.95;100389.66;5054644;28;20029;-56
2023/01/13 08:41:57;;;;;;;47.53;7.65;;;;;;;6.35;96.62;100397.50;5054738;28;20025;-56
2023/01/13 08:44:27;;;;;;;51.13;8.48;;;;;;;6.39;96.59;100392.56;5054440;28;20024;-56
2023/01/13 08:46:53;;;;;;;43.17;7.80;;;;;;;6.40;96.60;100388.31;5054580;28;20186;-56
2023/01/13 08:49:19;;;;;;;47.90;7.68;;;;;;;6.45;96.03;100397.03;5054675;28;20017;-56
2023/01/13 08:51:44;;;;;;;43.50;6.85;;;;;;;6.53;95.50;100385.44;5054077;28;20036;-56
2023/01/13 08:54:11;;;;;;;58.70;7.90;;;;;;;6.60;95.73;100399.34;5054541;28;20070;-54
2023/01/13 08:56:36;;;;;;;50.28;7.32;;;;;;;6.67;95.13;100403.00;5054299;28;20029;-56
2023/01/13 08:59:01;;;;;;;45.60;7.45;;;;;;;6.73;94.94;100400.69;5054039;28;20438;-56
2023/01/13 09:01:27;;;;;;;52.72;7.35;;;;;;;6.75;94.32;100404.16;5053274;28;20060;-56
2023/01/13 09:03:52;;;;;;;57.92;7.65;;;;;;;6.76;94.16;100418.72;5054438;28;20056;-56
2023/01/13 09:06:18;;;;;;;59.20;8.95;;;;;;;6.84;93.36;100414.78;5053559;28;20477;-56
2023/01/13 09:08:44;;;;;;;46.15;7.78;;;;;;;6.95;93.13;100419.41;5054210;28;20033;-56
2023/01/13 09:14:01;;;;;;;52.80;7.95;;;;;;;7.21;91.76;100428.06;5054131;28;20121;-56
2023/01/13 09:16:26;;;;;;;43.22;7.65;;;;;;;7.25;91.73;100425.63;5054300;28;20116;-55
2023/01/13 09:18:52;;;;;;;55.20;8.10;;;;;;;7.30;90.12;100419.84;5053268;28;20033;-56
2023/01/13 09:21:18;;;;;;;47.78;7.90;;;;;;;7.33;90.60;100419.94;5054083;28;20028;-56
2023/01/13 09:23:43;;;;;;;54.05;7.60;;;;;;;7.44;89.40;100413.50;5053979;28;20021;-56
2023/01/13 09:26:10;;;;;;;45.30;7.93;;;;;;;7.50;88.04;100429.09;5053710;28;20090;-56
2023/01/13 09:28:35;;;;;;;46.42;7.65;;;;;;;7.50;89.87;100425.66;5053380;28;20385;-56
2023/01/13 09:31:00;;;;;;;44.28;7.50;;;;;;;7.42;90.55;100427.94;5054109;28;20033;-56
2023/01/13 09:36:10;;;;;;;48.38;8.38;;;;;;;7.21;91.13;100426.34;5053841;28;20091;-56
2023/01/13 09:38:35;;;;;;;45.70;8.30;;;;;;;7.16;90.68;100440.69;5053671;28;20037;-56
2023/01/13 09:43:52;;;;;;;54.63;8.80;;;;;;;7.17;90.13;100439.03;5053090;28;20032;-56
2023/01/13 09:43:58;;;;;;;51.65;8.10;;;;;;;7.18;90.80;100462.13;5053393;28;20056;-56
2023/01/13 09:46:46;;;;;;;51.72;8.43;;;;;;;7.19;90.82;100448.50;5053824;28;20029;-56
2023/01/13 09:49:41;;;;;;;38.10;7.72;;;;;;;7.14;92.66;100462.84;5053196;28;20036;-55
2023/01/13 09:52:14;;;;;;;53.45;8.52;;;;;;;6.91;95.85;100457.72;5049042;28;20034;-56
2023/01/13 09:55:04;;;;;;;54.88;9.45;;;;;;;6.78;97.89;100468.31;5052719;28;20465;-56
2023/01/13 09:57:35;;;;;;;49.95;9.10;;;;;;;6.67;98.57;100461.91;5053005;28;20105;-56
2023/01/13 10:00:00;;;;;;;61.67;8.73;;;;;;;6.64;99.10;100462.66;5053625;28;20067;-55
2023/01/13 10:02:47;;;;;;;56.25;9.05;;;;;;;6.70;96.97;100462.00;5052829;28;20040;-55
2023/01/13 10:05:27;;;;;;;63.20;9.18;;;;;;;6.74;96.98;100476.69;5053341;28;20039;-56
2023/01/13 10:07:57;;;;;;;55.55;9.13;;;;;;;6.83;95.96;100474.50;5052789;28;20100;-55
2023/01/13 10:10:39;;;;;;;57.05;8.90;;;;;;;6.92;95.17;100485.09;5052988;28;20033;-54
2023/01/13 10:13:14;;;;;;;51.88;8.50;;;;;;;7.00;94.98;100481.97;5052978;28;20032;-55
2023/01/13 10:15:51;;;;;;;52.42;9.43;;;;;;;7.00;95.45;100484.53;5052246;28;20391;-55
2023/01/13 10:18:38;;;;;;;67.27;10.53;;;;;;;6.89;97.91;100490.09;5053076;28;20103;-56
2023/01/13 10:21:39;;;;;;;54.67;8.63;;;;;;;6.77;100.00;100487.06;5053030;28;20282;-55
2023/01/13 10:24:18;;;;;;;60.47;9.00;;;;;;;6.63;100.00;100483.06;5052447;28;20064;-55
2023/01/13 10:26:46;;;;;;;57.05;10.23;;;;;;;6.54;100.00;100487.00;5052747;28;20029;-56
2023/01/13 10:29:27;;;;;;;64.05;9.88;;;;;;;6.50;100.00;100497.06;5052333;28;20116;-55
2023/01/13 10:31:54;;;;;;;69.00;9.98;;;;;;;6.46;100.00;100496.06;5052796;28;20039;-55
2023/01/13 10:34:20;;;;;;;65.90;11.00;;;;;;;6.44;100.00;100502.81;5053134;28;20017;-56
2023/01/13 10:37:09;;;;;;;72.47;11.30;;;;;;;6.42;100.00;100515.53;5052003;28;20287;-56
2023/01/13 10:39:40;;;;;;;68.13;11.50;;;;;;;6.34;100.00;100518.59;5052314;28;20047;-56
2023/01/13 10:42:12;;;;;;;60.92;9.75;;;;;;;6.30;100.00;100516.72;5053158;28;20078;-54
2023/01/13 10:44:48;;;;;;;62.60;13.98;;;;;;;6.26;100.00;100521.72;5051904;28;20021;-55
2023/01/13 10:47:23;;;;;;;63.70;12.10;;;;;;;6.24;100.00;100523.34;5052846;28;20044;-55
2023/01/13 10:50:09;;;;;;;61.83;11.50;;;;;;;6.26;100.00;100525.94;5052416;28;20056;-55
2023/01/13 10:52:38;;;;;;;57.83;12.02;;;;;;;6.22;100.00;100513.84;5052332;28;20032;-55
2023/01/13 10:55:35;;;;;;;57.78;11.77;;;;;;;6.26;100.00;100521.72;5052451;28;20491;-55
2023/01/13 10:58:18;;;;;;;69.35;12.48;;;;;;;6.28;100.00;100513.25;5052287;28;20029;-54
2023/01/13 11:00:44;;;;;;;80.05;26.77;;;;;;;6.31;100.00;100513.34;5052305;28;20089;-55
2023/01/13 11:03:22;;;;;;;57.25;11.50;;;;;;;6.32;100.00;100527.91;5052532;28;20495;-55
2023/01/13 11:05:52;;;;;;;;;;;;;;;6.37;100.00;100528.97;5051829;28;20086;-55
2023/01/13 11:08:24;;;;;;;74.80;15.52;;;;;;;6.35;100.00;100522.91;5052679;28;19935;-55
2023/01/13 11:10:53;;;;;;;64.53;13.38;;;;;;;6.38;100.00;100534.16;5052304;28;20021;-54
2023/01/13 11:13:27;;;;;;;61.95;11.32;;;;;;;6.39;100.00;100540.13;5051928;28;20033;-54
2023/01/13 11:15:59;;;;;;;62.45;12.48;;;;;;;6.41;100.00;100531.72;5052269;28;20430;-54
2023/01/13 11:18:36;;;;;;;63.38;11.63;;;;;;;6.43;100.00;100531.81;5052001;28;20033;-56
2023/01/13 11:21:12;;;;;;;54.28;11.45;;;;;;;6.50;100.00;100527.81;5052345;28;20052;-55
2023/01/13 11:23:47;;;;;;;55.95;10.43;;;;;;;6.57;100.00;100533.22;5052460;28;20354;-54
2023/01/13 11:26:39;;;;;;;62.70;9.65;;;;;;;6.60;100.00;100524.81;5055985;28;20024;-55
2023/01/13 11:29:15;;;;;;;49.33;8.88;;;;;;;6.64;100.00;100547.16;5056326;28;20024;-54
2023/01/13 11:31:59;;;;;;;57.22;9.13;;;;;;;6.66;100.00;100548.09;5055981;28;20033;-54
2023/01/13 11:34:34;;;;;;;59.83;8.52;;;;;;;6.72;100.00;100542.34;5055666;28;20032;-54
2023/01/13 11:37:02;;;;;;;62.25;10.43;;;;;;;6.81;100.00;100534.16;5056238;28;20029;-54
2023/01/13 11:40:05;;;;;;;47.60;8.90;;;;;;;6.90;100.00;100542.19;5055311;28;20490;-55
2023/01/13 11:42:45;;;;;;;56.67;8.70;;;;;;;6.96;99.38;100531.31;5055734;28;20062;-55
2023/01/13 11:45:15;;;;;;;44.33;8.75;;;;;;;7.02;99.50;100549.50;5056171;28;20025;-54
2023/01/13 11:47:42;;;;;;;53.67;7.85;;;;;;;7.08;98.99;100549.75;5055013;28;20036;-55
2023/01/13 11:50:32;;;;;;;50.10;8.32;;;;;;;7.13;98.38;100543.09;5055933;28;20060;-55
2023/01/13 11:53:22;;;;;;;53.03;8.60;;;;;;;7.15;97.16;100549.13;5055776;28;20468;-54
2023/01/13 11:56:12;;;;;;;49.47;8.65;;;;;;;7.14;97.77;100557.66;5055190;28;20032;-54
2023/01/13 11:58:48;;;;;;;45.00;8.43;;;;;;;7.08;98.08;100567.69;5055700;28;20025;-55
2023/01/13 12:01:41;;;;;;;56.45;9.25;;;;;;;7.05;98.81;100562.41;5055152;28;20032;-54
2023/01/13 12:04:22;;;;;;;49.58;7.97;;;;;;;7.06;98.00;100564.16;5055729;28;20052;-54
2023/01/13 12:06:58;;;;;;;48.75;8.38;;;;;;;7.08;97.08;100572.81;5055154;28;20448;-54
2023/01/13 12:09:26;;;;;;;53.55;8.57;;;;;;;7.10;97.22;100576.28;5054828;28;20028;-55
2023/01/13 12:12:18;;;;;;;47.10;8.48;;;;;;;7.11;96.74;100582.28;5055406;28;20040;-54
2023/01/13 12:14:48;;;;;;;36.50;7.70;;;;;;;7.12;96.21;100590.03;5055026;28;20032;-54
2023/01/13 12:17:44;;;;;;;58.45;8.65;;;;;;;7.15;96.24;100594.41;5055117;28;20037;-54
2023/01/13 12:20:35;;;;;;;44.28;7.28;;;;;;;7.16;95.41;100597.03;5053190;28;20037;-55